sensor_id;sensor_type;location;lat;lon;timestamp;pressure;altitude;pressure_sealevel;temperature;humidity
60055;BME280;45930;53.514;55.904;2023-02-20T00:00:36;49369.66;;;-149.77;100.00
60055;BME280;45930;53.514;55.904;2023-02-20T00:01:36;49369.66;;;-149.77;100.00
60055;BME280;45930;53.514;55.904;2023-02-20T00:02:37;49345.91;;;-149.77;100.00
60055;BME280;45930;53.514;55.904;2023-02-20T00:03:38;49351.84;;;-149.77;100.00
60055;BME280;45930;53.514;55.904;2023-02-20T00:04:39;49365.69;;;-149.77;100.00
60055;BME280;45930;53.514;55.904;2023-02-20T00:05:40;49357.78;;;-149.77;100.00
60055;BME280;45930;53.514;55.904;2023-02-20T00:06:40;49320.16;;;-149.77;100.00
60055;BME280;45930;53.514;55.904;2023-02-20T00:07:41;49322.13;;;-149.77;100.00
60055;BME280;45930;53.514;55.904;2023-02-20T00:08:42;49336.00;;;-149.77;100.00
60055;BME280;45930;53.514;55.904;2023-02-20T00:09:43;49336.00;;;-149.77;100.00
60055;BME280;45930;53.514;55.904;2023-02-20T00:10:44;49345.91;;;-149.77;100.00
60055;BME280;45930;53.514;55.904;2023-02-20T00:11:44;49373.63;;;-149.77;100.00
60055;BME280;45930;53.514;55.904;2023-02-20T00:12:46;49389.47;;;-149.77;100.00
60055;BME280;45930;53.514;55.904;2023-02-20T00:13:48;49395.41;;;-149.77;100.00
60055;BME280;45930;53.514;55.904;2023-02-20T00:14:49;49353.81;;;-149.77;100.00
60055;BME280;45930;53.514;55.904;2023-02-20T00:15:50;49385.50;;;-149.77;100.00
60055;BME280;45930;53.514;55.904;2023-02-20T00:16:50;49415.22;;;-149.77;100.00
60055;BME280;45930;53.514;55.904;2023-02-20T00:17:51;49395.41;;;-149.77;100.00
60055;BME280;45930;53.514;55.904;2023-02-20T00:18:52;49393.44;;;-149.77;100.00
60055;BME280;45930;53.514;55.904;2023-02-20T00:19:54;49387.50;;;-149.77;100.00
60055;BME280;45930;53.514;55.904;2023-02-20T00:20:55;49385.50;;;-149.77;100.00
60055;BME280;45930;53.514;55.904;2023-02-20T00:21:55;49377.59;;;-149.77;100.00
60055;BME280;45930;53.514;55.904;2023-02-20T00:22:56;49336.00;;;-149.77;100.00
60055;BME280;45930;53.514;55.904;2023-02-20T00:23:57;49387.50;;;-149.77;100.00
60055;BME280;45930;53.514;55.904;2023-02-20T00:24:58;49363.72;;;-149.77;100.00
60055;BME280;45930;53.514;55.904;2023-02-20T00:25:58;49351.84;;;-149.77;100.00
60055;BME280;45930;53.514;55.904;2023-02-20T00:26:59;49369.66;;;-149.77;100.00
60055;BME280;45930;53.514;55.904;2023-02-20T00:28:00;49379.56;;;-149.77;100.00
60055;BME280;45930;53.514;55.904;2023-02-20T00:29:01;49361.75;;;-149.77;100.00
60055;BME280;45930;53.514;55.904;2023-02-20T00:30:03;49347.88;;;-149.77;100.00
60055;BME280;45930;53.514;55.904;2023-02-20T00:31:06;49355.78;;;-149.77;100.00
60055;BME280;45930;53.514;55.904;2023-02-20T00:32:07;49397.41;;;-149.77;100.00
60055;BME280;45930;53.514;55.904;2023-02-20T00:33:08;49401.34;;;-149.77;100.00
60055;BME280;45930;53.514;55.904;2023-02-20T00:34:08;49379.56;;;-149.77;100.00
60055;BME280;45930;53.514;55.904;2023-02-20T00:35:10;49421.16;;;-149.77;100.00
60055;BME280;45930;53.514;55.904;2023-02-20T00:36:18;49395.41;;;-149.77;100.00
60055;BME280;45930;53.514;55.904;2023-02-20T00:37:19;49361.75;;;-149.77;100.00
60055;BME280;45930;53.514;55.904;2023-02-20T00:38:20;49320.16;;;-149.77;100.00
60055;BME280;45930;53.514;55.904;2023-02-20T00:39:21;49298.34;;;-149.77;100.00
60055;BME280;45930;53.514;55.904;2023-02-20T00:40:23;49294.41;;;-149.77;100.00
60055;BME280;45930;53.514;55.904;2023-02-20T00:41:24;49252.78;;;-149.77;100.00
60055;BME280;45930;53.514;55.904;2023-02-20T00:42:25;49292.41;;;-149.77;100.00
60055;BME280;45930;53.514;55.904;2023-02-20T00:43:25;49310.25;;;-149.77;100.00
60055;BME280;45930;53.514;55.904;2023-02-20T00:44:26;49308.25;;;-149.77;100.00
60055;BME280;45930;53.514;55.904;2023-02-20T00:45:27;49337.97;;;-149.77;100.00
60055;BME280;45930;53.514;55.904;2023-02-20T00:46:28;49282.50;;;-149.77;100.00
60055;BME280;45930;53.514;55.904;2023-02-20T00:47:29;49316.19;;;-149.77;100.00
60055;BME280;45930;53.514;55.904;2023-02-20T00:48:30;49343.91;;;-149.77;100.00
60055;BME280;45930;53.514;55.904;2023-02-20T00:49:30;49306.28;;;-149.77;100.00
60055;BME280;45930;53.514;55.904;2023-02-20T00:50:31;49391.44;;;-149.77;100.00
60055;BME280;45930;53.514;55.904;2023-02-20T00:51:32;49347.88;;;-149.77;100.00
60055;BME280;45930;53.514;55.904;2023-02-20T00:52:35;49353.81;;;-149.77;100.00
60055;BME280;45930;53.514;55.904;2023-02-20T00:53:36;49375.59;;;-149.77;100.00
60055;BME280;45930;53.514;55.904;2023-02-20T00:54:36;49365.69;;;-149.77;100.00
60055;BME280;45930;53.514;55.904;2023-02-20T00:55:37;49395.41;;;-149.77;100.00
60055;BME280;45930;53.514;55.904;2023-02-20T00:56:38;49337.97;;;-149.77;100.00
60055;BME280;45930;53.514;55.904;2023-02-20T00:57:39;49397.41;;;-149.77;100.00
60055;BME280;45930;53.514;55.904;2023-02-20T00:58:40;49363.72;;;-149.77;100.00
60055;BME280;45930;53.514;55.904;2023-02-20T00:59:41;49385.50;;;-149.77;100.00
60055;BME280;45930;53.514;55.904;2023-02-20T01:00:41;49405.31;;;-149.77;99.79
60055;BME280;45930;53.514;55.904;2023-02-20T01:01:42;49377.59;;;-149.77;99.97
60055;BME280;45930;53.514;55.904;2023-02-20T01:02:43;49413.25;;;-149.77;99.46
60055;BME280;45930;53.514;55.904;2023-02-20T01:03:44;49405.31;;;-149.77;99.52
60055;BME280;45930;53.514;55.904;2023-02-20T01:04:45;49371.66;;;-149.77;100.00
60055;BME280;45930;53.514;55.904;2023-02-20T01:05:46;49353.81;;;-149.77;100.00
60055;BME280;45930;53.514;55.904;2023-02-20T01:06:47;49353.81;;;-149.77;100.00
60055;BME280;45930;53.514;55.904;2023-02-20T01:07:47;49345.91;;;-149.77;100.00
60055;BME280;45930;53.514;55.904;2023-02-20T01:08:48;49361.75;;;-149.77;100.00
60055;BME280;45930;53.514;55.904;2023-02-20T01:09:49;49353.81;;;-149.77;100.00
60055;BME280;45930;53.514;55.904;2023-02-20T01:10:50;49322.13;;;-149.77;100.00
60055;BME280;45930;53.514;55.904;2023-02-20T01:11:51;49381.56;;;-149.77;100.00
60055;BME280;45930;53.514;55.904;2023-02-20T01:12:51;49365.69;;;-149.77;100.00
60055;BME280;45930;53.514;55.904;2023-02-20T01:13:52;49381.56;;;-149.77;100.00
60055;BME280;45930;53.514;55.904;2023-02-20T01:14:53;49357.78;;;-149.77;99.89
60055;BME280;45930;53.514;55.904;2023-02-20T01:15:54;49365.69;;;-149.77;99.57
60055;BME280;45930;53.514;55.904;2023-02-20T01:16:54;49361.75;;;-149.77;100.00
60055;BME280;45930;53.514;55.904;2023-02-20T01:17:55;49328.06;;;-149.77;100.00
60055;BME280;45930;53.514;55.904;2023-02-20T01:18:56;49389.47;;;-149.77;99.88
60055;BME280;45930;53.514;55.904;2023-02-20T01:19:57;49393.44;;;-149.77;99.80
60055;BME280;45930;53.514;55.904;2023-02-20T01:20:57;49359.75;;;-149.77;99.84
60055;BME280;45930;53.514;55.904;2023-02-20T01:21:58;49351.84;;;-149.77;100.00
60055;BME280;45930;53.514;55.904;2023-02-20T01:23:00;49385.50;;;-149.77;99.60
60055;BME280;45930;53.514;55.904;2023-02-20T01:24:01;49389.47;;;-149.77;99.31
60055;BME280;45930;53.514;55.904;2023-02-20T01:25:01;49373.63;;;-149.77;99.05
60055;BME280;45930;53.514;55.904;2023-02-20T01:26:03;49395.41;;;-149.77;99.61
60055;BME280;45930;53.514;55.904;2023-02-20T01:27:04;49421.16;;;-149.77;99.55
60055;BME280;45930;53.514;55.904;2023-02-20T01:28:05;49397.41;;;-149.77;99.74
60055;BME280;45930;53.514;55.904;2023-02-20T01:29:06;49391.44;;;-149.77;99.19
60055;BME280;45930;53.514;55.904;2023-02-20T01:30:07;49369.66;;;-149.77;98.83
60055;BME280;45930;53.514;55.904;2023-02-20T01:31:08;49415.22;;;-149.77;99.11
60055;BME280;45930;53.514;55.904;2023-02-20T01:32:11;49419.19;;;-149.77;98.39
60055;BME280;45930;53.514;55.904;2023-02-20T01:33:12;49405.31;;;-149.77;97.99
60055;BME280;45930;53.514;55.904;2023-02-20T01:34:13;49407.31;;;-149.77;97.94
60055;BME280;45930;53.514;55.904;2023-02-20T01:35:14;49403.34;;;-149.77;97.77
60055;BME280;45930;53.514;55.904;2023-02-20T01:36:15;49433.06;;;-149.77;96.67
60055;BME280;45930;53.514;55.904;2023-02-20T01:37:16;49425.13;;;-149.77;97.09
60055;BME280;45930;53.514;55.904;2023-02-20T01:38:17;49415.22;;;-149.77;96.22
60055;BME280;45930;53.514;55.904;2023-02-20T01:39:20;49423.16;;;-149.77;96.46
60055;BME280;45930;53.514;55.904;2023-02-20T01:40:21;49478.63;;;-149.77;96.13
60055;BME280;45930;53.514;55.904;2023-02-20T01:41:23;49433.06;;;-149.77;96.25
60055;BME280;45930;53.514;55.904;2023-02-20T01:42:28;49417.19;;;-149.77;96.09
60055;BME280;45930;53.514;55.904;2023-02-20T01:43:29;49425.13;;;-149.77;95.97
60055;BME280;45930;53.514;55.904;2023-02-20T01:44:33;49468.72;;;-149.77;95.95
60055;BME280;45930;53.514;55.904;2023-02-20T01:45:36;49417.19;;;-149.77;96.06
60055;BME280;45930;53.514;55.904;2023-02-20T01:47:38;49448.91;;;-149.77;95.98
60055;BME280;45930;53.514;55.904;2023-02-20T01:48:39;49429.09;;;-149.77;96.14
60055;BME280;45930;53.514;55.904;2023-02-20T01:50:44;49464.75;;;-149.77;95.37
60055;BME280;45930;53.514;55.904;2023-02-20T01:51:53;49484.56;;;-149.77;95.47
60055;BME280;45930;53.514;55.904;2023-02-20T01:53:02;49452.84;;;-149.77;96.12
60055;BME280;45930;53.514;55.904;2023-02-20T01:54:06;49425.13;;;-149.77;97.25
60055;BME280;45930;53.514;55.904;2023-02-20T01:55:21;49429.09;;;-149.77;98.51
60055;BME280;45930;53.514;55.904;2023-02-20T01:56:22;49425.13;;;-149.77;99.36
60055;BME280;45930;53.514;55.904;2023-02-20T01:57:25;49379.56;;;-149.77;99.80
60055;BME280;45930;53.514;55.904;2023-02-20T01:58:39;49393.44;;;-149.77;100.00
60055;BME280;45930;53.514;55.904;2023-02-20T01:59:42;49367.69;;;-149.77;100.00
60055;BME280;45930;53.514;55.904;2023-02-20T02:00:43;49381.56;;;-149.77;100.00
60055;BME280;45930;53.514;55.904;2023-02-20T02:01:45;49385.50;;;-149.77;99.88
60055;BME280;45930;53.514;55.904;2023-02-20T02:02:55;49391.44;;;-149.77;100.00
60055;BME280;45930;53.514;55.904;2023-02-20T02:03:59;49336.00;;;-149.77;100.00
60055;BME280;45930;53.514;55.904;2023-02-20T02:05:02;49379.56;;;-149.77;100.00
60055;BME280;45930;53.514;55.904;2023-02-20T02:06:06;49379.56;;;-149.77;99.74
60055;BME280;45930;53.514;55.904;2023-02-20T02:07:07;49415.22;;;-149.77;98.55
60055;BME280;45930;53.514;55.904;2023-02-20T02:08:08;49401.34;;;-149.77;98.27
60055;BME280;45930;53.514;55.904;2023-02-20T02:09:25;49425.13;;;-149.77;97.89
60055;BME280;45930;53.514;55.904;2023-02-20T02:10:45;49401.34;;;-149.77;97.76
60055;BME280;45930;53.514;55.904;2023-02-20T02:11:48;49413.25;;;-149.77;96.99
60055;BME280;45930;53.514;55.904;2023-02-20T02:12:52;49440.97;;;-149.77;96.85
60055;BME280;45930;53.514;55.904;2023-02-20T02:13:53;49448.91;;;-149.77;96.59
60055;BME280;45930;53.514;55.904;2023-02-20T02:15:16;49439.00;;;-149.77;95.98
60055;BME280;45930;53.514;55.904;2023-02-20T02:16:38;49431.06;;;-149.77;95.99
60055;BME280;45930;53.514;55.904;2023-02-20T02:17:52;49423.16;;;-149.77;95.45
60055;BME280;45930;53.514;55.904;2023-02-20T02:20:34;49429.09;;;-149.77;95.54
60055;BME280;45930;53.514;55.904;2023-02-20T02:25:17;49468.72;;;-149.77;94.28
60055;BME280;45930;53.514;55.904;2023-02-20T02:27:16;49468.72;;;-149.77;94.58
60055;BME280;45930;53.514;55.904;2023-02-20T02:28:27;49498.41;;;-149.77;94.99
60055;BME280;45930;53.514;55.904;2023-02-20T02:37:27;49468.72;;;-149.77;94.84
60055;BME280;45930;53.514;55.904;2023-02-20T02:39:04;49472.66;;;-149.77;94.29
60055;BME280;45930;53.514;55.904;2023-02-20T02:41:55;49433.06;;;-149.77;93.32
60055;BME280;45930;53.514;55.904;2023-02-20T02:43:14;49456.81;;;-149.77;93.20
60055;BME280;45930;53.514;55.904;2023-02-20T02:44:22;49508.31;;;-149.77;93.07
60055;BME280;45930;53.514;55.904;2023-02-20T02:45:34;49486.53;;;-149.77;93.03
60055;BME280;45930;53.514;55.904;2023-02-20T02:49:39;49464.75;;;-149.77;91.67
60055;BME280;45930;53.514;55.904;2023-02-20T02:50:45;49500.41;;;-149.77;91.67
60055;BME280;45930;53.514;55.904;2023-02-20T02:51:48;49478.63;;;-149.77;91.09
60055;BME280;45930;53.514;55.904;2023-02-20T02:52:50;49504.38;;;-149.77;90.98
60055;BME280;45930;53.514;55.904;2023-02-20T02:55:07;49502.38;;;-149.77;90.66
60055;BME280;45930;53.514;55.904;2023-02-20T02:56:09;49547.94;;;-149.77;90.70
60055;BME280;45930;53.514;55.904;2023-02-20T02:57:25;49504.38;;;-149.77;91.60
60055;BME280;45930;53.514;55.904;2023-02-20T02:58:26;49492.47;;;-149.77;91.47
60055;BME280;45930;53.514;55.904;2023-02-20T02:59:30;49512.28;;;-149.77;91.94
60055;BME280;45930;53.514;55.904;2023-02-20T03:00:42;49522.19;;;-149.77;90.20
60055;BME280;45930;53.514;55.904;2023-02-20T03:01:49;49512.28;;;-149.77;90.70
60055;BME280;45930;53.514;55.904;2023-02-20T03:03:05;49510.31;;;-149.77;90.82
60055;BME280;45930;53.514;55.904;2023-02-20T03:04:10;49514.28;;;-149.77;91.05
60055;BME280;45930;53.514;55.904;2023-02-20T03:05:14;49524.16;;;-149.77;90.58
60055;BME280;45930;53.514;55.904;2023-02-20T03:06:21;49532.09;;;-149.77;90.25
60055;BME280;45930;53.514;55.904;2023-02-20T03:07:31;49536.06;;;-149.77;90.23
60055;BME280;45930;53.514;55.904;2023-02-20T03:09:55;49500.41;;;-149.77;90.41
60055;BME280;45930;53.514;55.904;2023-02-20T03:11:27;49534.06;;;-149.77;89.50
60055;BME280;45930;53.514;55.904;2023-02-20T03:12:31;49508.31;;;-149.77;90.03
60055;BME280;45930;53.514;55.904;2023-02-20T03:14:00;49494.47;;;-149.77;90.25
60055;BME280;45930;53.514;55.904;2023-02-20T03:15:26;49504.38;;;-149.77;90.38
60055;BME280;45930;53.514;55.904;2023-02-20T03:17:19;49510.31;;;-149.77;89.77
60055;BME280;45930;53.514;55.904;2023-02-20T03:18:46;49528.13;;;-149.77;88.60
60055;BME280;45930;53.514;55.904;2023-02-20T03:19:50;49522.19;;;-149.77;89.38
60055;BME280;45930;53.514;55.904;2023-02-20T03:20:57;49536.06;;;-149.77;88.78
60055;BME280;45930;53.514;55.904;2023-02-20T03:22:00;49530.13;;;-149.77;88.75
60055;BME280;45930;53.514;55.904;2023-02-20T03:23:04;49514.28;;;-149.77;87.99
60055;BME280;45930;53.514;55.904;2023-02-20T03:24:06;49540.03;;;-149.77;87.86
60055;BME280;45930;53.514;55.904;2023-02-20T03:25:16;49524.16;;;-149.77;87.88
60055;BME280;45930;53.514;55.904;2023-02-20T03:26:22;49530.13;;;-149.77;88.33
60055;BME280;45930;53.514;55.904;2023-02-20T03:27:43;49557.84;;;-149.77;88.43
60055;BME280;45930;53.514;55.904;2023-02-20T03:28:47;49542.00;;;-149.77;88.01
60055;BME280;45930;53.514;55.904;2023-02-20T03:29:55;49518.22;;;-149.77;87.50
60055;BME280;45930;53.514;55.904;2023-02-20T03:31:02;49512.28;;;-149.77;87.46
60055;BME280;45930;53.514;55.904;2023-02-20T03:32:10;49522.19;;;-149.77;87.92
60055;BME280;45930;53.514;55.904;2023-02-20T03:35:22;49516.25;;;-149.77;88.73
60055;BME280;45930;53.514;55.904;2023-02-20T03:36:57;49532.09;;;-149.77;88.58
60055;BME280;45930;53.514;55.904;2023-02-20T03:38:17;49559.81;;;-149.77;89.86
60055;BME280;45930;53.514;55.904;2023-02-20T03:39:43;49506.34;;;-149.77;89.70
60055;BME280;45930;53.514;55.904;2023-02-20T03:41:04;49542.00;;;-149.77;89.17
60055;BME280;45930;53.514;55.904;2023-02-20T03:42:27;49498.41;;;-149.77;88.49
60055;BME280;45930;53.514;55.904;2023-02-20T03:43:52;49504.38;;;-149.77;88.24
60055;BME280;45930;53.514;55.904;2023-02-20T03:44:55;49520.22;;;-149.77;87.56
60055;BME280;45930;53.514;55.904;2023-02-20T03:46:05;49518.22;;;-149.77;87.52
60055;BME280;45930;53.514;55.904;2023-02-20T03:47:08;49534.06;;;-149.77;86.87
60055;BME280;45930;53.514;55.904;2023-02-20T03:48:55;49518.22;;;-149.77;86.47
60055;BME280;45930;53.514;55.904;2023-02-20T03:49:59;49522.19;;;-149.77;85.88
60055;BME280;45930;53.514;55.904;2023-02-20T03:51:01;49524.16;;;-149.77;84.66
60055;BME280;45930;53.514;55.904;2023-02-20T03:52:03;49522.19;;;-149.77;85.33
60055;BME280;45930;53.514;55.904;2023-02-20T03:53:04;49547.94;;;-149.77;85.81
60055;BME280;45930;53.514;55.904;2023-02-20T03:54:06;49500.41;;;-149.77;85.51
60055;BME280;45930;53.514;55.904;2023-02-20T03:55:07;49547.94;;;-149.77;86.15
60055;BME280;45930;53.514;55.904;2023-02-20T03:56:40;49526.16;;;-149.77;85.66
60055;BME280;45930;53.514;55.904;2023-02-20T03:57:46;49510.31;;;-149.77;85.44
60055;BME280;45930;53.514;55.904;2023-02-20T03:59:01;49508.31;;;-149.77;85.37
60055;BME280;45930;53.514;55.904;2023-02-20T04:00:08;49526.16;;;-149.77;85.06
60055;BME280;45930;53.514;55.904;2023-02-20T04:01:12;49540.03;;;-149.77;84.40
60055;BME280;45930;53.514;55.904;2023-02-20T04:02:40;49528.13;;;-149.77;84.17
60055;BME280;45930;53.514;55.904;2023-02-20T04:03:43;49532.09;;;-149.77;83.81
60055;BME280;45930;53.514;55.904;2023-02-20T04:04:52;49512.28;;;-149.77;84.83
60055;BME280;45930;53.514;55.904;2023-02-20T04:05:56;49500.41;;;-149.77;84.12
60055;BME280;45930;53.514;55.904;2023-02-20T04:07:00;49545.97;;;-149.77;83.45
60055;BME280;45930;53.514;55.904;2023-02-20T04:08:10;49502.38;;;-149.77;84.25
60055;BME280;45930;53.514;55.904;2023-02-20T04:09:18;49530.13;;;-149.77;84.00
60055;BME280;45930;53.514;55.904;2023-02-20T04:10:27;49506.34;;;-149.77;84.29
60055;BME280;45930;53.514;55.904;2023-02-20T04:11:35;49486.53;;;-149.77;84.58
60055;BME280;45930;53.514;55.904;2023-02-20T04:12:41;49520.22;;;-149.77;84.57
60055;BME280;45930;53.514;55.904;2023-02-20T04:13:43;49504.38;;;-149.77;84.27
60055;BME280;45930;53.514;55.904;2023-02-20T04:14:45;49502.38;;;-149.77;84.12
60055;BME280;45930;53.514;55.904;2023-02-20T04:15:48;49522.19;;;-149.77;83.31
60055;BME280;45930;53.514;55.904;2023-02-20T04:16:53;49504.38;;;-149.77;83.30
60055;BME280;45930;53.514;55.904;2023-02-20T04:18:00;49512.28;;;-149.77;82.29
60055;BME280;45930;53.514;55.904;2023-02-20T04:19:04;49488.50;;;-149.77;82.26
60055;BME280;45930;53.514;55.904;2023-02-20T04:20:05;49522.19;;;-149.77;81.71
60055;BME280;45930;53.514;55.904;2023-02-20T04:21:16;49532.09;;;-149.77;80.82
60055;BME280;45930;53.514;55.904;2023-02-20T04:22:22;49518.22;;;-149.77;79.80
60055;BME280;45930;53.514;55.904;2023-02-20T04:23:25;49538.03;;;-149.77;80.55
60055;BME280;45930;53.514;55.904;2023-02-20T04:24:29;49520.22;;;-149.77;80.26
60055;BME280;45930;53.514;55.904;2023-02-20T04:26:47;49543.97;;;-149.77;81.42
60055;BME280;45930;53.514;55.904;2023-02-20T04:27:48;49543.97;;;-149.77;81.44
60055;BME280;45930;53.514;55.904;2023-02-20T04:28:49;49532.09;;;-149.77;81.63
60055;BME280;45930;53.514;55.904;2023-02-20T04:29:50;49522.19;;;-149.77;81.80
60055;BME280;45930;53.514;55.904;2023-02-20T04:30:51;49504.38;;;-149.77;81.78
60055;BME280;45930;53.514;55.904;2023-02-20T04:31:52;49520.22;;;-149.77;81.30
60055;BME280;45930;53.514;55.904;2023-02-20T04:32:53;49528.13;;;-149.77;80.89
60055;BME280;45930;53.514;55.904;2023-02-20T04:33:54;49512.28;;;-149.77;80.77
60055;BME280;45930;53.514;55.904;2023-02-20T04:34:55;49536.06;;;-149.77;81.82
60055;BME280;45930;53.514;55.904;2023-02-20T04:35:56;49504.38;;;-149.77;80.89
60055;BME280;45930;53.514;55.904;2023-02-20T04:37:09;49510.31;;;-149.77;81.05
60055;BME280;45930;53.514;55.904;2023-02-20T04:38:11;49549.94;;;-149.77;80.28
60055;BME280;45930;53.514;55.904;2023-02-20T04:39:11;49522.19;;;-149.77;80.22
60055;BME280;45930;53.514;55.904;2023-02-20T04:40:16;49520.22;;;-149.77;79.07
60055;BME280;45930;53.514;55.904;2023-02-20T04:41:17;49528.13;;;-149.77;78.69
60055;BME280;45930;53.514;55.904;2023-02-20T04:42:17;49551.91;;;-149.77;78.60
60055;BME280;45930;53.514;55.904;2023-02-20T04:43:18;49530.13;;;-149.77;78.62
60055;BME280;45930;53.514;55.904;2023-02-20T04:44:19;49528.13;;;-149.77;78.28
60055;BME280;45930;53.514;55.904;2023-02-20T04:45:33;49518.22;;;-149.77;78.61
60055;BME280;45930;53.514;55.904;2023-02-20T04:46:34;49530.13;;;-149.77;77.14
60055;BME280;45930;53.514;55.904;2023-02-20T04:47:34;49508.31;;;-149.77;78.43
60055;BME280;45930;53.514;55.904;2023-02-20T04:48:35;49536.06;;;-149.77;79.42
60055;BME280;45930;53.514;55.904;2023-02-20T04:49:36;49514.28;;;-149.77;80.38
60055;BME280;45930;53.514;55.904;2023-02-20T04:50:37;49490.50;;;-149.77;80.12
60055;BME280;45930;53.514;55.904;2023-02-20T04:51:37;49508.31;;;-149.77;83.35
60055;BME280;45930;53.514;55.904;2023-02-20T04:52:38;49492.47;;;-149.77;85.95
60055;BME280;45930;53.514;55.904;2023-02-20T04:53:41;49504.38;;;-149.77;88.70
60055;BME280;45930;53.514;55.904;2023-02-20T04:54:41;49460.78;;;-149.77;89.04
60055;BME280;45930;53.514;55.904;2023-02-20T04:55:42;49454.84;;;-149.77;88.82
60055;BME280;45930;53.514;55.904;2023-02-20T04:56:43;49446.91;;;-149.77;88.97
60055;BME280;45930;53.514;55.904;2023-02-20T04:57:44;49472.66;;;-149.77;87.52
60055;BME280;45930;53.514;55.904;2023-02-20T04:58:47;49458.81;;;-149.77;87.34
60055;BME280;45930;53.514;55.904;2023-02-20T04:59:51;49472.66;;;-149.77;84.72
60055;BME280;45930;53.514;55.904;2023-02-20T05:00:52;49498.41;;;-149.77;83.18
60055;BME280;45930;53.514;55.904;2023-02-20T05:01:52;49492.47;;;-149.77;80.50
60055;BME280;45930;53.514;55.904;2023-02-20T05:02:54;49504.38;;;-149.77;79.36
60055;BME280;45930;53.514;55.904;2023-02-20T05:03:55;49512.28;;;-149.77;78.55
60055;BME280;45930;53.514;55.904;2023-02-20T05:04:56;49472.66;;;-149.77;79.15
60055;BME280;45930;53.514;55.904;2023-02-20T05:06:00;49484.56;;;-149.77;78.22
60055;BME280;45930;53.514;55.904;2023-02-20T05:07:00;49474.66;;;-149.77;76.74
60055;BME280;45930;53.514;55.904;2023-02-20T05:08:04;49488.50;;;-149.77;76.81
60055;BME280;45930;53.514;55.904;2023-02-20T05:09:05;49492.47;;;-149.77;74.88
60055;BME280;45930;53.514;55.904;2023-02-20T05:10:12;49482.56;;;-149.77;73.88
60055;BME280;45930;53.514;55.904;2023-02-20T05:11:13;49504.38;;;-149.77;72.57
60055;BME280;45930;53.514;55.904;2023-02-20T05:12:14;49504.38;;;-149.77;70.91
60055;BME280;45930;53.514;55.904;2023-02-20T05:13:15;49502.38;;;-149.77;71.31
60055;BME280;45930;53.514;55.904;2023-02-20T05:14:16;49482.56;;;-149.77;69.61
60055;BME280;45930;53.514;55.904;2023-02-20T05:15:18;49488.50;;;-149.77;69.05
60055;BME280;45930;53.514;55.904;2023-02-20T05:16:18;49470.69;;;-149.77;67.63
60055;BME280;45930;53.514;55.904;2023-02-20T05:17:19;49472.66;;;-149.77;66.80
60055;BME280;45930;53.514;55.904;2023-02-20T05:18:27;49488.50;;;-149.77;65.38
60055;BME280;45930;53.514;55.904;2023-02-20T05:19:28;49520.22;;;-149.77;64.58
60055;BME280;45930;53.514;55.904;2023-02-20T05:20:28;49512.28;;;-149.77;65.63
60055;BME280;45930;53.514;55.904;2023-02-20T05:21:51;49494.47;;;-149.77;65.30
60055;BME280;45930;53.514;55.904;2023-02-20T05:23:10;49512.28;;;-149.77;64.99
60055;BME280;45930;53.514;55.904;2023-02-20T05:24:11;49510.31;;;-149.77;65.43
60055;BME280;45930;53.514;55.904;2023-02-20T05:25:13;49520.22;;;-149.77;63.98
60055;BME280;45930;53.514;55.904;2023-02-20T05:26:19;49500.41;;;-149.77;63.12
60055;BME280;45930;53.514;55.904;2023-02-20T05:27:22;49480.59;;;-149.77;62.82
60055;BME280;45930;53.514;55.904;2023-02-20T05:28:23;49506.34;;;-149.77;62.65
60055;BME280;45930;53.514;55.904;2023-02-20T05:29:24;49510.31;;;-149.77;61.53
60055;BME280;45930;53.514;55.904;2023-02-20T05:30:24;49504.38;;;-149.77;62.01
60055;BME280;45930;53.514;55.904;2023-02-20T05:31:25;49490.50;;;-149.77;61.74
60055;BME280;45930;53.514;55.904;2023-02-20T05:32:28;49492.47;;;-149.77;61.19
60055;BME280;45930;53.514;55.904;2023-02-20T05:33:29;49514.28;;;-149.77;60.30
60055;BME280;45930;53.514;55.904;2023-02-20T05:34:29;49478.63;;;-149.77;58.55
60055;BME280;45930;53.514;55.904;2023-02-20T05:35:30;49462.75;;;-149.77;58.73
60055;BME280;45930;53.514;55.904;2023-02-20T05:36:33;49468.72;;;-149.77;59.71
60055;BME280;45930;53.514;55.904;2023-02-20T05:37:34;49482.56;;;-149.77;59.46
60055;BME280;45930;53.514;55.904;2023-02-20T05:38:34;49482.56;;;-149.77;57.98
60055;BME280;45930;53.514;55.904;2023-02-20T05:39:35;49488.50;;;-149.77;57.72
60055;BME280;45930;53.514;55.904;2023-02-20T05:40:36;49470.69;;;-149.77;57.41
60055;BME280;45930;53.514;55.904;2023-02-20T05:41:37;49496.44;;;-149.77;57.56
60055;BME280;45930;53.514;55.904;2023-02-20T05:42:37;49482.56;;;-149.77;57.16
60055;BME280;45930;53.514;55.904;2023-02-20T05:43:40;49488.50;;;-149.77;56.30
60055;BME280;45930;53.514;55.904;2023-02-20T05:44:42;49480.59;;;-149.77;56.05
60055;BME280;45930;53.514;55.904;2023-02-20T05:45:43;49462.75;;;-149.77;54.69
60055;BME280;45930;53.514;55.904;2023-02-20T05:46:49;49472.66;;;-149.77;54.94
60055;BME280;45930;53.514;55.904;2023-02-20T05:47:50;49468.72;;;-149.77;55.18
60055;BME280;45930;53.514;55.904;2023-02-20T05:48:51;49496.44;;;-149.77;54.75
60055;BME280;45930;53.514;55.904;2023-02-20T05:49:52;49470.69;;;-149.77;53.44
60055;BME280;45930;53.514;55.904;2023-02-20T05:50:53;49462.75;;;-149.77;54.07
60055;BME280;45930;53.514;55.904;2023-02-20T05:51:57;49452.84;;;-149.77;53.84
60055;BME280;45930;53.514;55.904;2023-02-20T05:52:58;49446.91;;;-149.77;53.22
60055;BME280;45930;53.514;55.904;2023-02-20T05:53:58;49478.63;;;-149.77;52.53
60055;BME280;45930;53.514;55.904;2023-02-20T05:54:59;49462.75;;;-149.77;51.38